ADDS METAR Data INFO
IDs: Format: Raw Decoded Include TAF

Data at: 0717 UTC 19 Oct 2017

KTEW 190713Z AUTO 22008KT 180V240 10SM CLR 15/07 A3004 RMK AO2 T01450065
KTEW 190654Z AUTO 22008G17KT 10SM CLR 15/07 A3005 RMK AO2 T01500065
KTEW 190623Z AUTO 22008G16KT 10SM CLR 15/06 A3005 RMK AO2 T01500062
KTEW 190613Z AUTO 22005G14KT 10SM CLR 15/06 A3006 RMK AO2 T01500061
KTEW 190554Z AUTO 22006KT 10SM CLR 15/06 A3006 RMK AO2 T01450060
KTEW 190523Z AUTO 22005KT 10SM CLR 14/06 A3007 RMK AO2 T01420057
KTEW 190513Z AUTO 21006KT 10SM CLR 14/06 A3007 RMK AO2 T01430056
KTEW 190454Z AUTO 22006KT 10SM CLR 15/06 A3007 RMK AO2 T01450055
KTEW 190424Z AUTO 20005KT 10SM CLR 15/05 A3008 RMK AO2 T01460052
KTEW 190414Z AUTO 21005KT 10SM CLR 15/05 A3008 RMK AO2 T01460051
KTEW 190354Z AUTO 22007KT 10SM CLR 15/05 A3009 RMK AO2 T01470050
KTEW 190324Z AUTO 21003KT 10SM CLR 14/05 A3009 RMK AO2 T01440047
KTEW 190314Z AUTO 21005KT 10SM CLR 14/05 A3008 RMK AO2 T01420045
KTEW 190254Z AUTO 00000KT 10SM CLR 14/05 A3008 RMK AO2 T01400045
KTEW 190224Z AUTO 19004KT 10SM CLR 14/05 A3008 RMK AO2 T01380046
KTEW 190214Z AUTO 18003KT 10SM CLR 14/05 A3008 RMK AO2 T01380046
KTEW 190154Z AUTO 00000KT 10SM CLR 14/05 A3008 RMK AO2 T01420045
KTEW 190124Z AUTO 00000KT 10SM CLR 14/05 A3008 RMK AO2 T01430045
KTEW 190114Z AUTO 00000KT 10SM CLR 14/05 A3008 RMK AO2 T01410046
KTEW 190054Z AUTO 00000KT 10SM CLR 15/05 A3008 RMK AO2 T01460045
KTEW 190024Z AUTO 00000KT 10SM CLR 15/04 A3008 RMK AO2 T01510041
KTEW 190014Z AUTO 00000KT 10SM CLR 15/04 A3008 RMK AO2 T01500043
KTEW 182354Z AUTO 17004KT 10SM CLR 15/05 A3008 RMK AO2 T01500045
KTEW 182324Z AUTO 18003KT 10SM CLR 17/04 A3008 RMK AO2 T01680037
KTEW 182313Z AUTO 18004KT 10SM CLR 17/04 A3008 RMK AO2 T01700035
KTEW 182254Z AUTO 00000KT 10SM CLR 18/04 A3008 RMK AO2 T01750038
KTEW 182224Z AUTO 16004KT 10SM CLR 19/03 A3008 RMK AO2 T01880030
KTEW 182213Z AUTO 18003KT 10SM CLR 19/03 A3009 RMK AO2 T01920031
KTEW 182154Z AUTO 17004KT 10SM CLR 20/03 A3009 RMK AO2 T01970031
KTEW 182124Z AUTO 17004KT 10SM CLR 20/03 A3009 RMK AO2 T02020033
KTEW 182113Z AUTO 21006KT 10SM CLR 21/03 A3010 RMK AO2 T02050031
KTEW 182054Z AUTO 17005KT 10SM CLR 21/03 A3011 RMK AO2 T02070026
KTEW 182023Z AUTO 17005G15KT 10SM CLR 21/03 A3011 RMK AO2 T02090031
KTEW 182013Z AUTO 16009G15KT 130V190 10SM CLR 21/03 A3011 RMK AO2 T02080030
KTEW 181954Z AUTO 19008KT 130V230 10SM CLR 21/03 A3012 RMK AO2 T02080026
KTEW 181923Z AUTO 18007KT 120V290 10SM CLR 21/03 A3012 RMK AO2 T02100029
KTEW 181913Z AUTO 19007G14KT 110V250 10SM CLR 21/03 A3012 RMK AO2 T02060028
KTEW 181854Z AUTO 20007G14KT 140V230 10SM CLR 21/02 A3013 RMK AO2 T02070022
KTEW 181823Z AUTO 19008G15KT 130V230 10SM CLR 20/02 A3014 RMK AO2 T02000024
KTEW 181813Z AUTO 19006G15KT 10SM CLR 20/04 A3014 RMK AO2 T02010035
KTEW 181754Z AUTO 19004KT 10SM CLR 20/04 A3016 RMK AO2 T01980042
KTEW 181723Z AUTO 19005KT 10SM CLR 19/05 A3017 RMK AO2 T01890054
KTEW 181714Z AUTO 21005G15KT 10SM CLR 19/05 A3018 RMK AO2 T01860054
KTEW 181654Z AUTO 19005KT 10SM CLR 19/05 A3019 RMK AO2 T01850054
KTEW 181623Z AUTO 22008KT 180V250 10SM CLR 18/05 A3021 RMK AO2 T01750049
KTEW 181614Z AUTO 20006G15KT 10SM CLR 18/05 A3021 RMK AO2 T01760048
KTEW 181554Z AUTO 22006KT 10SM CLR 17/05 A3022 RMK AO2 T01720049
KTEW 181523Z AUTO 23009G16KT 10SM CLR 16/05 A3022 RMK AO2 T01630052
KTEW 181514Z AUTO 22008G14KT 170V250 10SM CLR 16/06 A3022 RMK AO2 T01610055
KTEW 181454Z AUTO 21006KT 10SM CLR 16/06 A3022 RMK AO2 T01560056
KTEW 181423Z AUTO 23006KT 10SM CLR 14/05 A3022 RMK AO2 T01440053
KTEW 181414Z AUTO 22006KT 10SM CLR 14/05 A3022 RMK AO2 T01400053
KTEW 181354Z AUTO 16004KT 10SM CLR 13/06 A3022 RMK AO2 T01300055
KTEW 181324Z AUTO 00000KT 10SM CLR 12/05 A3022 RMK AO2 T01150049
KTEW 181314Z AUTO 00000KT 10SM CLR 11/05 A3022 RMK AO2 T01120050
KTEW 181254Z AUTO 15003KT 10SM CLR 10/05 A3022 RMK AO2 T00990052
KTEW 181224Z AUTO 00000KT 10SM CLR 09/04 A3021 RMK AO2 T00850043
KTEW 181214Z AUTO 00000KT 10SM CLR 09/04 A3021 RMK AO2 T00880042
KTEW 181154Z AUTO 16003KT 10SM CLR 10/04 A3021 RMK AO2 T01000042
KTEW 181124Z AUTO 00000KT 10SM CLR 10/05 A3021 RMK AO2 T00970045
KTEW 181114Z AUTO 00000KT 10SM CLR 10/04 A3021 RMK AO2 T01000043
KTEW 181054Z AUTO 00000KT 10SM CLR 10/05 A3022 RMK AO2 T01000045
KTEW 181024Z AUTO 14003KT 10SM CLR 10/05 A3021 RMK AO2 T01020045
KTEW 181014Z AUTO 00000KT 10SM CLR 10/05 A3021 RMK AO2 T01020045
KTEW 180953Z AUTO 00000KT 10SM CLR 10/05 A3021 RMK AO2 T01040045
KTEW 180924Z AUTO 00000KT 10SM CLR 11/04 A3020 RMK AO2 T01060043
KTEW 180914Z AUTO 00000KT 10SM CLR 11/05 A3020 RMK AO2 T01080045
KTEW 180853Z AUTO 00000KT 10SM CLR 11/05 A3019 RMK AO2 T01090045
KTEW 180824Z AUTO 00000KT 10SM CLR 11/05 A3019 RMK AO2 T01110045
KTEW 180814Z AUTO 00000KT 10SM CLR 12/05 A3019 RMK AO2 T01150045
KTEW 180753Z AUTO 00000KT 10SM CLR 12/05 A3019 RMK AO2 T01150045
KTEW 180724Z AUTO 21003KT 10SM CLR 12/05 A3019 RMK AO2 T01160046
KTEW 180713Z AUTO 22003KT 10SM CLR 12/05 A3019 RMK AO2 T01170046
KTEW 180653Z AUTO 00000KT 10SM CLR 12/05 A3019 RMK AO2 T01200046
KTEW 180624Z AUTO 00000KT 10SM CLR 12/05 A3019 RMK AO2 T01220047
KTEW 180613Z AUTO 00000KT 10SM CLR 13/05 A3019 RMK AO2 T01250047
KTEW 180553Z AUTO 21003KT 10SM CLR 13/05 A3019 RMK AO2 T01270046
KTEW 180524Z AUTO 23005KT 10SM CLR 14/05 A3018 RMK AO2 T01350045
KTEW 180513Z AUTO 23004KT 10SM CLR 14/05 A3018 RMK AO2 T01350046
KTEW 180453Z AUTO 22005KT 10SM CLR 14/05 A3018 RMK AO2 T01380046
KTEW 180424Z AUTO 22005KT 10SM CLR 14/05 A3018 RMK AO2 T01400046
KTEW 180414Z AUTO 21004KT 10SM CLR 14/05 A3018 RMK AO2 T01400047
KTEW 180354Z AUTO 22004KT 10SM CLR 14/05 A3018 RMK AO2 T01400049
KTEW 180324Z AUTO 21004KT 10SM CLR 14/05 A3018 RMK AO2 T01410051
KTEW 180314Z AUTO 22004KT 10SM CLR 14/05 A3018 RMK AO2 T01420051
KTEW 180254Z AUTO 22005KT 10SM CLR 14/05 A3018 RMK AO2 T01410053
KTEW 180224Z AUTO 22003KT 10SM CLR 15/05 A3018 RMK AO2 T01450053
KTEW 180214Z AUTO 22003KT 10SM CLR 15/05 A3017 RMK AO2 T01450054
KTEW 180154Z AUTO 21004KT 10SM CLR 15/05 A3017 RMK AO2 T01450054
KTEW 180124Z AUTO 00000KT 10SM CLR 14/05 A3017 RMK AO2 T01390054
KTEW 180114Z AUTO 00000KT 10SM CLR 13/06 A3017 RMK AO2 T01310056
KTEW 180054Z AUTO 00000KT 10SM CLR 15/06 A3016 RMK AO2 T01450056
KTEW 180024Z AUTO 00000KT 10SM CLR 15/06 A3015 RMK AO2 T01490059
KTEW 180014Z AUTO 00000KT 10SM CLR 16/06 A3015 RMK AO2 T01550055
KTEW 172354Z AUTO 00000KT 10SM CLR 16/06 A3014 RMK AO2 T01600055
KTEW 172323Z AUTO 21003KT 10SM CLR 17/06 A3013 RMK AO2 T01660055
KTEW 172314Z AUTO 00000KT 10SM CLR 17/05 A3013 RMK AO2 T01700053
KTEW 172254Z AUTO 22004KT 10SM CLR 18/05 A3013 RMK AO2 T01780051
KTEW 172223Z AUTO 23007KT 080V250 10SM CLR 19/05 A3012 RMK AO2 T01880051
KTEW 172214Z AUTO 22007KT 10SM CLR 19/05 A3012 RMK AO2 T01920050
KTEW 172154Z AUTO 23008KT 160V260 10SM CLR 20/05 A3012 RMK AO2 T01970049
KTEW 172124Z AUTO 23006G16KT 10SM CLR 20/05 A3012 RMK AO2 T02000052
KTEW 172114Z AUTO 23010G18KT 10SM CLR 20/05 A3012 RMK AO2 T02010049
KTEW 172054Z AUTO 23007G18KT 200V260 10SM CLR 20/05 A3012 RMK AO2 T02030046
KTEW 172024Z AUTO 25011G19KT 10SM CLR 21/04 A3012 RMK AO2 T02070041
KTEW 172014Z AUTO 25014G19KT 10SM CLR 21/04 A3012 RMK AO2 T02080044
KTEW 171954Z AUTO 25011G17KT 10SM CLR 21/04 A3012 RMK AO2 T02080043
KTEW 171924Z AUTO 23010G18KT 200V260 10SM CLR 21/05 A3012 RMK AO2 T02050046